sensor_id;sensor_type;location;lat;lon;timestamp;P1;durP1;ratioP1;P2;durP2;ratioP2
38615;SDS011;24370;51.986;4.666;2023-02-15T00:01:39;82.40;;;38.70;;
38615;SDS011;24370;51.986;4.666;2023-02-15T00:04:05;78.77;;;37.67;;
38615;SDS011;24370;51.986;4.666;2023-02-15T00:06:31;82.30;;;38.80;;
38615;SDS011;24370;51.986;4.666;2023-02-15T00:08:58;77.47;;;37.20;;
38615;SDS011;24370;51.986;4.666;2023-02-15T00:11:24;82.70;;;36.77;;
38615;SDS011;24370;51.986;4.666;2023-02-15T00:14:11;77.23;;;36.87;;
38615;SDS011;24370;51.986;4.666;2023-02-15T00:16:39;83.87;;;38.50;;
38615;SDS011;24370;51.986;4.666;2023-02-15T00:19:05;85.03;;;38.37;;
38615;SDS011;24370;51.986;4.666;2023-02-15T00:21:32;82.13;;;39.27;;
38615;SDS011;24370;51.986;4.666;2023-02-15T00:23:59;79.97;;;37.67;;
38615;SDS011;24370;51.986;4.666;2023-02-15T00:26:26;86.27;;;38.53;;
38615;SDS011;24370;51.986;4.666;2023-02-15T00:28:52;78.93;;;36.33;;
38615;SDS011;24370;51.986;4.666;2023-02-15T00:31:18;81.73;;;36.80;;
38615;SDS011;24370;51.986;4.666;2023-02-15T00:33:44;80.13;;;39.30;;
38615;SDS011;24370;51.986;4.666;2023-02-15T00:36:10;84.10;;;39.53;;
38615;SDS011;24370;51.986;4.666;2023-02-15T00:38:35;86.33;;;39.93;;
38615;SDS011;24370;51.986;4.666;2023-02-15T00:41:02;94.03;;;42.40;;
38615;SDS011;24370;51.986;4.666;2023-02-15T00:43:30;84.87;;;40.07;;
38615;SDS011;24370;51.986;4.666;2023-02-15T00:45:56;86.80;;;43.93;;
38615;SDS011;24370;51.986;4.666;2023-02-15T00:48:22;92.17;;;42.40;;
38615;SDS011;24370;51.986;4.666;2023-02-15T00:50:57;81.03;;;39.63;;
38615;SDS011;24370;51.986;4.666;2023-02-15T00:53:24;89.53;;;40.13;;
38615;SDS011;24370;51.986;4.666;2023-02-15T00:55:50;82.57;;;39.40;;
38615;SDS011;24370;51.986;4.666;2023-02-15T00:58:16;83.00;;;38.90;;
38615;SDS011;24370;51.986;4.666;2023-02-15T01:00:43;77.93;;;37.07;;
38615;SDS011;24370;51.986;4.666;2023-02-15T01:03:09;79.00;;;36.20;;
38615;SDS011;24370;51.986;4.666;2023-02-15T01:05:36;76.37;;;35.20;;
38615;SDS011;24370;51.986;4.666;2023-02-15T01:08:02;70.27;;;33.90;;
38615;SDS011;24370;51.986;4.666;2023-02-15T01:10:28;72.50;;;35.00;;
38615;SDS011;24370;51.986;4.666;2023-02-15T01:12:54;70.10;;;32.60;;
38615;SDS011;24370;51.986;4.666;2023-02-15T01:15:20;68.83;;;32.83;;
38615;SDS011;24370;51.986;4.666;2023-02-15T01:17:47;66.30;;;33.03;;
38615;SDS011;24370;51.986;4.666;2023-02-15T01:20:18;65.50;;;33.27;;
38615;SDS011;24370;51.986;4.666;2023-02-15T01:22:47;62.43;;;31.57;;
38615;SDS011;24370;51.986;4.666;2023-02-15T01:25:15;63.77;;;31.27;;
38615;SDS011;24370;51.986;4.666;2023-02-15T01:27:41;65.33;;;32.10;;
38615;SDS011;24370;51.986;4.666;2023-02-15T01:30:07;61.27;;;32.23;;
38615;SDS011;24370;51.986;4.666;2023-02-15T01:32:33;72.83;;;30.80;;
38615;SDS011;24370;51.986;4.666;2023-02-15T01:34:59;67.83;;;32.27;;
38615;SDS011;24370;51.986;4.666;2023-02-15T01:37:24;71.27;;;34.40;;
38615;SDS011;24370;51.986;4.666;2023-02-15T01:39:49;65.47;;;32.53;;
38615;SDS011;24370;51.986;4.666;2023-02-15T01:42:20;70.63;;;32.27;;
38615;SDS011;24370;51.986;4.666;2023-02-15T01:47:17;67.03;;;32.33;;
38615;SDS011;24370;51.986;4.666;2023-02-15T01:49:47;58.22;;;31.23;;
38615;SDS011;24370;51.986;4.666;2023-02-15T01:52:17;63.43;;;32.00;;
38615;SDS011;24370;51.986;4.666;2023-02-15T01:54:44;63.90;;;31.33;;
38615;SDS011;24370;51.986;4.666;2023-02-15T01:57:13;57.60;;;30.03;;
38615;SDS011;24370;51.986;4.666;2023-02-15T01:59:43;64.77;;;31.53;;
38615;SDS011;24370;51.986;4.666;2023-02-15T02:02:13;59.53;;;30.80;;
38615;SDS011;24370;51.986;4.666;2023-02-15T02:04:48;58.03;;;30.43;;
38615;SDS011;24370;51.986;4.666;2023-02-15T02:07:15;59.80;;;30.50;;
38615;SDS011;24370;51.986;4.666;2023-02-15T02:09:44;64.93;;;32.50;;
38615;SDS011;24370;51.986;4.666;2023-02-15T02:12:10;74.53;;;34.43;;
38615;SDS011;24370;51.986;4.666;2023-02-15T02:14:37;65.17;;;31.20;;
38615;SDS011;24370;51.986;4.666;2023-02-15T02:17:16;63.40;;;33.07;;
38615;SDS011;24370;51.986;4.666;2023-02-15T02:25:42;65.30;;;30.80;;
38615;SDS011;24370;51.986;4.666;2023-02-15T02:34:00;57.97;;;29.40;;
38615;SDS011;24370;51.986;4.666;2023-02-15T02:36:48;65.90;;;30.23;;
38615;SDS011;24370;51.986;4.666;2023-02-15T02:39:27;58.17;;;30.33;;
38615;SDS011;24370;51.986;4.666;2023-02-15T02:42:06;60.77;;;29.43;;
38615;SDS011;24370;51.986;4.666;2023-02-15T02:44:47;65.93;;;31.70;;
38615;SDS011;24370;51.986;4.666;2023-02-15T02:47:27;61.80;;;29.83;;
38615;SDS011;24370;51.986;4.666;2023-02-15T02:50:02;61.97;;;29.03;;
38615;SDS011;24370;51.986;4.666;2023-02-15T02:57:40;69.60;;;32.03;;
38615;SDS011;24370;51.986;4.666;2023-02-15T03:00:13;57.20;;;28.97;;
38615;SDS011;24370;51.986;4.666;2023-02-15T03:02:41;65.83;;;29.93;;
38615;SDS011;24370;51.986;4.666;2023-02-15T03:05:15;69.30;;;33.80;;
38615;SDS011;24370;51.986;4.666;2023-02-15T03:07:46;62.67;;;32.00;;
38615;SDS011;24370;51.986;4.666;2023-02-15T03:10:15;68.07;;;31.33;;
38615;SDS011;24370;51.986;4.666;2023-02-15T03:12:44;67.23;;;30.97;;
38615;SDS011;24370;51.986;4.666;2023-02-15T03:15:15;73.00;;;33.77;;
38615;SDS011;24370;51.986;4.666;2023-02-15T03:17:45;63.20;;;30.33;;
38615;SDS011;24370;51.986;4.666;2023-02-15T03:20:16;68.17;;;30.70;;
38615;SDS011;24370;51.986;4.666;2023-02-15T03:22:51;63.17;;;29.73;;
38615;SDS011;24370;51.986;4.666;2023-02-15T03:28:07;63.77;;;30.27;;
38615;SDS011;24370;51.986;4.666;2023-02-15T03:30:36;61.43;;;30.13;;
38615;SDS011;24370;51.986;4.666;2023-02-15T03:33:05;67.77;;;32.73;;
38615;SDS011;24370;51.986;4.666;2023-02-15T03:35:38;61.87;;;30.73;;
38615;SDS011;24370;51.986;4.666;2023-02-15T03:38:09;76.37;;;32.97;;
38615;SDS011;24370;51.986;4.666;2023-02-15T03:40:41;69.20;;;31.33;;
38615;SDS011;24370;51.986;4.666;2023-02-15T03:43:43;72.07;;;32.90;;
38615;SDS011;24370;51.986;4.666;2023-02-15T03:46:30;73.87;;;33.87;;
38615;SDS011;24370;51.986;4.666;2023-02-15T03:49:07;77.28;;;34.17;;
38615;SDS011;24370;51.986;4.666;2023-02-15T03:51:37;83.07;;;35.73;;
38615;SDS011;24370;51.986;4.666;2023-02-15T03:54:09;73.63;;;35.50;;
38615;SDS011;24370;51.986;4.666;2023-02-15T03:56:41;73.23;;;34.80;;
38615;SDS011;24370;51.986;4.666;2023-02-15T03:59:27;72.47;;;34.73;;
38615;SDS011;24370;51.986;4.666;2023-02-15T04:02:16;82.23;;;34.83;;
38615;SDS011;24370;51.986;4.666;2023-02-15T04:04:48;76.00;;;33.83;;
38615;SDS011;24370;51.986;4.666;2023-02-15T04:07:14;74.50;;;33.90;;
38615;SDS011;24370;51.986;4.666;2023-02-15T04:09:39;65.30;;;31.70;;
38615;SDS011;24370;51.986;4.666;2023-02-15T04:12:23;71.03;;;33.23;;
38615;SDS011;24370;51.986;4.666;2023-02-15T04:14:48;72.87;;;33.30;;
38615;SDS011;24370;51.986;4.666;2023-02-15T04:17:33;74.37;;;31.90;;
38615;SDS011;24370;51.986;4.666;2023-02-15T04:19:58;73.40;;;32.30;;
38615;SDS011;24370;51.986;4.666;2023-02-15T04:22:42;72.00;;;32.03;;
38615;SDS011;24370;51.986;4.666;2023-02-15T04:25:26;71.63;;;34.90;;
38615;SDS011;24370;51.986;4.666;2023-02-15T04:27:52;76.77;;;36.10;;
38615;SDS011;24370;51.986;4.666;2023-02-15T04:30:19;85.37;;;35.83;;
38615;SDS011;24370;51.986;4.666;2023-02-15T04:32:47;78.50;;;35.67;;
38615;SDS011;24370;51.986;4.666;2023-02-15T04:35:13;72.57;;;34.60;;
38615;SDS011;24370;51.986;4.666;2023-02-15T04:37:40;76.23;;;35.87;;
38615;SDS011;24370;51.986;4.666;2023-02-15T04:40:06;78.60;;;35.10;;
38615;SDS011;24370;51.986;4.666;2023-02-15T04:42:33;82.27;;;35.70;;
38615;SDS011;24370;51.986;4.666;2023-02-15T04:44:59;76.17;;;36.70;;
38615;SDS011;24370;51.986;4.666;2023-02-15T04:47:24;79.40;;;36.90;;
38615;SDS011;24370;51.986;4.666;2023-02-15T04:49:50;85.90;;;37.97;;
38615;SDS011;24370;51.986;4.666;2023-02-15T04:52:15;88.40;;;37.53;;
38615;SDS011;24370;51.986;4.666;2023-02-15T04:54:42;80.87;;;38.80;;
38615;SDS011;24370;51.986;4.666;2023-02-15T04:57:09;85.80;;;38.87;;
38615;SDS011;24370;51.986;4.666;2023-02-15T04:59:34;83.87;;;39.83;;
38615;SDS011;24370;51.986;4.666;2023-02-15T05:01:59;88.07;;;38.97;;
38615;SDS011;24370;51.986;4.666;2023-02-15T05:04:25;82.20;;;38.23;;
38615;SDS011;24370;51.986;4.666;2023-02-15T05:06:50;90.17;;;40.00;;
38615;SDS011;24370;51.986;4.666;2023-02-15T05:09:15;85.63;;;38.53;;
38615;SDS011;24370;51.986;4.666;2023-02-15T05:11:41;93.70;;;38.97;;
38615;SDS011;24370;51.986;4.666;2023-02-15T05:14:07;90.30;;;39.50;;
38615;SDS011;24370;51.986;4.666;2023-02-15T05:16:33;101.90;;;41.73;;
38615;SDS011;24370;51.986;4.666;2023-02-15T05:18:58;91.93;;;40.23;;
38615;SDS011;24370;51.986;4.666;2023-02-15T05:21:24;94.13;;;42.70;;
38615;SDS011;24370;51.986;4.666;2023-02-15T05:23:49;103.47;;;42.83;;
38615;SDS011;24370;51.986;4.666;2023-02-15T05:26:19;102.00;;;42.37;;
38615;SDS011;24370;51.986;4.666;2023-02-15T05:29:05;89.30;;;40.40;;
38615;SDS011;24370;51.986;4.666;2023-02-15T05:31:30;98.87;;;41.53;;
38615;SDS011;24370;51.986;4.666;2023-02-15T05:33:56;81.40;;;37.83;;
38615;SDS011;24370;51.986;4.666;2023-02-15T05:36:22;85.37;;;39.00;;
38615;SDS011;24370;51.986;4.666;2023-02-15T05:38:47;100.30;;;40.93;;
38615;SDS011;24370;51.986;4.666;2023-02-15T05:41:13;88.23;;;38.93;;
38615;SDS011;24370;51.986;4.666;2023-02-15T05:43:38;99.13;;;41.33;;
38615;SDS011;24370;51.986;4.666;2023-02-15T05:46:04;86.30;;;38.20;;
38615;SDS011;24370;51.986;4.666;2023-02-15T05:48:30;91.60;;;39.00;;
38615;SDS011;24370;51.986;4.666;2023-02-15T05:50:57;85.47;;;39.83;;
38615;SDS011;24370;51.986;4.666;2023-02-15T05:53:24;77.63;;;37.20;;
38615;SDS011;24370;51.986;4.666;2023-02-15T05:55:49;84.60;;;37.47;;
38615;SDS011;24370;51.986;4.666;2023-02-15T05:58:15;80.40;;;37.40;;
38615;SDS011;24370;51.986;4.666;2023-02-15T06:00:40;78.97;;;38.00;;
38615;SDS011;24370;51.986;4.666;2023-02-15T06:03:05;78.97;;;36.50;;
38615;SDS011;24370;51.986;4.666;2023-02-15T06:05:31;86.63;;;37.83;;
38615;SDS011;24370;51.986;4.666;2023-02-15T06:07:56;92.43;;;40.47;;
38615;SDS011;24370;51.986;4.666;2023-02-15T06:10:22;89.17;;;38.77;;
38615;SDS011;24370;51.986;4.666;2023-02-15T06:12:47;88.20;;;38.23;;
38615;SDS011;24370;51.986;4.666;2023-02-15T06:15:12;84.80;;;38.10;;
38615;SDS011;24370;51.986;4.666;2023-02-15T06:17:40;88.73;;;37.43;;
38615;SDS011;24370;51.986;4.666;2023-02-15T06:20:06;85.60;;;38.33;;
38615;SDS011;24370;51.986;4.666;2023-02-15T06:22:33;85.93;;;37.07;;
38615;SDS011;24370;51.986;4.666;2023-02-15T06:24:58;78.57;;;35.23;;
38615;SDS011;24370;51.986;4.666;2023-02-15T06:27:24;88.03;;;37.87;;
38615;SDS011;24370;51.986;4.666;2023-02-15T06:29:49;87.63;;;40.87;;
38615;SDS011;24370;51.986;4.666;2023-02-15T06:32:14;81.90;;;36.67;;
38615;SDS011;24370;51.986;4.666;2023-02-15T06:34:40;86.23;;;38.03;;
38615;SDS011;24370;51.986;4.666;2023-02-15T06:37:05;84.13;;;37.37;;
38615;SDS011;24370;51.986;4.666;2023-02-15T06:39:32;86.43;;;39.37;;
38615;SDS011;24370;51.986;4.666;2023-02-15T06:41:58;86.23;;;38.40;;
38615;SDS011;24370;51.986;4.666;2023-02-15T06:44:23;83.40;;;37.40;;
38615;SDS011;24370;51.986;4.666;2023-02-15T06:46:49;87.00;;;38.70;;
38615;SDS011;24370;51.986;4.666;2023-02-15T06:49:14;96.47;;;39.43;;
38615;SDS011;24370;51.986;4.666;2023-02-15T06:51:39;91.43;;;39.80;;
38615;SDS011;24370;51.986;4.666;2023-02-15T06:54:05;87.17;;;38.47;;
38615;SDS011;24370;51.986;4.666;2023-02-15T06:56:30;94.13;;;38.43;;
38615;SDS011;24370;51.986;4.666;2023-02-15T06:58:55;86.97;;;38.33;;
38615;SDS011;24370;51.986;4.666;2023-02-15T07:01:21;88.53;;;39.00;;
38615;SDS011;24370;51.986;4.666;2023-02-15T07:03:46;85.40;;;36.07;;
38615;SDS011;24370;51.986;4.666;2023-02-15T07:06:11;89.43;;;38.23;;
38615;SDS011;24370;51.986;4.666;2023-02-15T07:08:37;85.33;;;38.43;;
38615;SDS011;24370;51.986;4.666;2023-02-15T07:11:04;94.20;;;39.23;;
38615;SDS011;24370;51.986;4.666;2023-02-15T07:13:49;88.43;;;39.17;;
38615;SDS011;24370;51.986;4.666;2023-02-15T07:16:14;91.37;;;40.37;;
38615;SDS011;24370;51.986;4.666;2023-02-15T07:18:40;109.73;;;41.07;;
38615;SDS011;24370;51.986;4.666;2023-02-15T07:21:06;96.07;;;40.43;;
38615;SDS011;24370;51.986;4.666;2023-02-15T07:23:35;89.10;;;40.23;;
38615;SDS011;24370;51.986;4.666;2023-02-15T07:26:01;102.90;;;42.10;;
38615;SDS011;24370;51.986;4.666;2023-02-15T07:28:27;96.97;;;41.63;;
38615;SDS011;24370;51.986;4.666;2023-02-15T07:30:53;99.03;;;40.53;;
38615;SDS011;24370;51.986;4.666;2023-02-15T07:33:19;89.10;;;40.17;;
38615;SDS011;24370;51.986;4.666;2023-02-15T07:35:52;98.23;;;41.00;;
38615;SDS011;24370;51.986;4.666;2023-02-15T07:38:20;94.27;;;38.43;;
38615;SDS011;24370;51.986;4.666;2023-02-15T07:40:46;103.90;;;43.30;;
38615;SDS011;24370;51.986;4.666;2023-02-15T07:43:12;104.77;;;42.43;;
38615;SDS011;24370;51.986;4.666;2023-02-15T07:45:38;109.33;;;43.33;;
38615;SDS011;24370;51.986;4.666;2023-02-15T07:48:04;103.87;;;42.53;;
38615;SDS011;24370;51.986;4.666;2023-02-15T07:50:30;104.27;;;43.20;;
38615;SDS011;24370;51.986;4.666;2023-02-15T07:52:56;98.67;;;42.80;;
38615;SDS011;24370;51.986;4.666;2023-02-15T07:55:21;110.17;;;45.90;;
38615;SDS011;24370;51.986;4.666;2023-02-15T07:57:48;110.67;;;44.73;;
38615;SDS011;24370;51.986;4.666;2023-02-15T08:00:14;114.83;;;46.37;;
38615;SDS011;24370;51.986;4.666;2023-02-15T08:02:42;103.57;;;44.40;;
38615;SDS011;24370;51.986;4.666;2023-02-15T08:05:12;117.13;;;47.63;;
38615;SDS011;24370;51.986;4.666;2023-02-15T08:07:38;104.60;;;46.97;;
38615;SDS011;24370;51.986;4.666;2023-02-15T08:10:03;115.97;;;48.53;;
38615;SDS011;24370;51.986;4.666;2023-02-15T08:12:29;121.33;;;50.10;;
38615;SDS011;24370;51.986;4.666;2023-02-15T08:14:54;120.37;;;49.30;;
38615;SDS011;24370;51.986;4.666;2023-02-15T08:17:19;118.50;;;50.17;;
38615;SDS011;24370;51.986;4.666;2023-02-15T08:19:45;118.60;;;49.83;;
38615;SDS011;24370;51.986;4.666;2023-02-15T08:22:12;117.30;;;48.73;;
38615;SDS011;24370;51.986;4.666;2023-02-15T08:24:39;118.33;;;48.93;;
38615;SDS011;24370;51.986;4.666;2023-02-15T08:27:08;107.63;;;47.87;;
38615;SDS011;24370;51.986;4.666;2023-02-15T08:29:35;123.53;;;49.50;;
38615;SDS011;24370;51.986;4.666;2023-02-15T08:32:03;106.83;;;47.10;;
38615;SDS011;24370;51.986;4.666;2023-02-15T08:34:33;111.17;;;48.37;;
38615;SDS011;24370;51.986;4.666;2023-02-15T08:37:00;119.83;;;49.33;;
38615;SDS011;24370;51.986;4.666;2023-02-15T08:39:26;104.27;;;45.23;;
38615;SDS011;24370;51.986;4.666;2023-02-15T08:41:51;115.33;;;47.70;;
38615;SDS011;24370;51.986;4.666;2023-02-15T08:44:18;111.50;;;48.20;;
38615;SDS011;24370;51.986;4.666;2023-02-15T08:46:44;108.30;;;46.00;;
38615;SDS011;24370;51.986;4.666;2023-02-15T08:49:12;117.90;;;48.53;;
38615;SDS011;24370;51.986;4.666;2023-02-15T08:51:40;109.67;;;50.40;;
38615;SDS011;24370;51.986;4.666;2023-02-15T08:54:06;105.77;;;48.07;;
38615;SDS011;24370;51.986;4.666;2023-02-15T08:56:35;110.77;;;48.43;;
38615;SDS011;24370;51.986;4.666;2023-02-15T08:59:02;108.83;;;48.30;;
38615;SDS011;24370;51.986;4.666;2023-02-15T09:01:29;101.07;;;45.00;;
38615;SDS011;24370;51.986;4.666;2023-02-15T09:03:57;101.47;;;45.90;;
38615;SDS011;24370;51.986;4.666;2023-02-15T09:06:25;103.77;;;46.57;;
38615;SDS011;24370;51.986;4.666;2023-02-15T09:08:51;102.03;;;47.27;;
38615;SDS011;24370;51.986;4.666;2023-02-15T09:13:49;102.10;;;45.77;;
38615;SDS011;24370;51.986;4.666;2023-02-15T09:16:17;100.17;;;45.43;;
38615;SDS011;24370;51.986;4.666;2023-02-15T09:18:42;94.00;;;44.67;;
38615;SDS011;24370;51.986;4.666;2023-02-15T09:21:13;94.13;;;45.87;;
38615;SDS011;24370;51.986;4.666;2023-02-15T09:23:41;101.82;;;45.53;;
38615;SDS011;24370;51.986;4.666;2023-02-15T09:26:10;100.33;;;45.53;;
38615;SDS011;24370;51.986;4.666;2023-02-15T09:28:37;100.47;;;46.63;;
38615;SDS011;24370;51.986;4.666;2023-02-15T09:31:13;97.73;;;46.60;;
38615;SDS011;24370;51.986;4.666;2023-02-15T09:33:43;91.10;;;44.80;;
38615;SDS011;24370;51.986;4.666;2023-02-15T09:36:30;92.80;;;45.40;;
38615;SDS011;24370;51.986;4.666;2023-02-15T09:57:53;61.70;;;31.67;;
38615;SDS011;24370;51.986;4.666;2023-02-15T10:11:14;58.90;;;31.97;;
38615;SDS011;24370;51.986;4.666;2023-02-15T10:19:18;67.83;;;34.37;;
38615;SDS011;24370;51.986;4.666;2023-02-15T10:22:09;59.00;;;30.77;;
38615;SDS011;24370;51.986;4.666;2023-02-15T10:25:00;65.57;;;32.60;;
38615;SDS011;24370;51.986;4.666;2023-02-15T10:27:48;61.67;;;32.57;;
38615;SDS011;24370;51.986;4.666;2023-02-15T10:30:15;66.43;;;32.73;;
38615;SDS011;24370;51.986;4.666;2023-02-15T10:33:01;64.87;;;33.50;;
38615;SDS011;24370;51.986;4.666;2023-02-15T10:38:16;67.33;;;35.10;;
38615;SDS011;24370;51.986;4.666;2023-02-15T10:44:06;66.47;;;33.60;;
38615;SDS011;24370;51.986;4.666;2023-02-15T10:49:25;69.93;;;36.17;;
38615;SDS011;24370;51.986;4.666;2023-02-15T10:55:00;70.30;;;34.90;;
38615;SDS011;24370;51.986;4.666;2023-02-15T10:57:40;74.63;;;35.20;;
38615;SDS011;24370;51.986;4.666;2023-02-15T11:07:59;64.67;;;33.20;;
38615;SDS011;24370;51.986;4.666;2023-02-15T11:13:17;65.77;;;33.03;;
38615;SDS011;24370;51.986;4.666;2023-02-15T11:15:57;65.00;;;33.43;;
38615;SDS011;24370;51.986;4.666;2023-02-15T11:18:39;65.47;;;32.53;;
38615;SDS011;24370;51.986;4.666;2023-02-15T11:23:57;66.17;;;32.63;;
38615;SDS011;24370;51.986;4.666;2023-02-15T11:26:27;64.70;;;34.00;;
38615;SDS011;24370;51.986;4.666;2023-02-15T11:28:59;68.70;;;34.37;;
38615;SDS011;24370;51.986;4.666;2023-02-15T11:32:02;64.37;;;33.63;;
38615;SDS011;24370;51.986;4.666;2023-02-15T11:34:44;66.87;;;33.47;;
38615;SDS011;24370;51.986;4.666;2023-02-15T11:42:48;61.53;;;31.73;;
38615;SDS011;24370;51.986;4.666;2023-02-15T11:45:21;64.63;;;33.40;;
38615;SDS011;24370;51.986;4.666;2023-02-15T11:47:47;63.53;;;33.40;;
38615;SDS011;24370;51.986;4.666;2023-02-15T11:50:18;63.03;;;33.15;;
38615;SDS011;24370;51.986;4.666;2023-02-15T11:52:51;66.13;;;33.88;;
38615;SDS011;24370;51.986;4.666;2023-02-15T11:55:20;67.25;;;31.70;;
38615;SDS011;24370;51.986;4.666;2023-02-15T11:57:54;60.83;;;31.85;;
38615;SDS011;24370;51.986;4.666;2023-02-15T12:00:29;61.33;;;30.67;;
38615;SDS011;24370;51.986;4.666;2023-02-15T12:03:01;59.17;;;31.08;;
38615;SDS011;24370;51.986;4.666;2023-02-15T12:08:01;56.65;;;31.10;;
38615;SDS011;24370;51.986;4.666;2023-02-15T12:10:34;54.53;;;30.73;;
38615;SDS011;24370;51.986;4.666;2023-02-15T12:13:10;57.08;;;31.52;;
38615;SDS011;24370;51.986;4.666;2023-02-15T12:15:41;58.75;;;31.60;;
38615;SDS011;24370;51.986;4.666;2023-02-15T12:21:10;54.75;;;30.48;;
38615;SDS011;24370;51.986;4.666;2023-02-15T12:26:09;55.88;;;29.65;;
38615;SDS011;24370;51.986;4.666;2023-02-15T12:28:40;56.03;;;29.88;;
38615;SDS011;24370;51.986;4.666;2023-02-15T12:31:17;58.03;;;29.42;;
38615;SDS011;24370;51.986;4.666;2023-02-15T12:33:46;56.03;;;30.85;;
38615;SDS011;24370;51.986;4.666;2023-02-15T12:36:15;59.25;;;30.05;;
38615;SDS011;24370;51.986;4.666;2023-02-15T12:38:49;56.83;;;30.58;;
38615;SDS011;24370;51.986;4.666;2023-02-15T12:41:28;59.15;;;31.25;;
38615;SDS011;24370;51.986;4.666;2023-02-15T12:46:58;58.50;;;31.25;;
38615;SDS011;24370;51.986;4.666;2023-02-15T12:49:24;57.53;;;31.27;;
38615;SDS011;24370;51.986;4.666;2023-02-15T12:51:54;59.15;;;31.35;;
38615;SDS011;24370;51.986;4.666;2023-02-15T12:56:50;55.47;;;28.88;;
38615;SDS011;24370;51.986;4.666;2023-02-15T12:59:16;60.42;;;30.30;;
38615;SDS011;24370;51.986;4.666;2023-02-15T13:01:45;56.97;;;31.58;;
38615;SDS011;24370;51.986;4.666;2023-02-15T13:04:18;60.80;;;30.75;;
38615;SDS011;24370;51.986;4.666;2023-02-15T13:06:46;63.10;;;30.73;;
38615;SDS011;24370;51.986;4.666;2023-02-15T13:09:15;64.13;;;30.13;;
38615;SDS011;24370;51.986;4.666;2023-02-15T13:12:08;58.10;;;29.13;;
38615;SDS011;24370;51.986;4.666;2023-02-15T13:14:43;55.80;;;28.95;;
38615;SDS011;24370;51.986;4.666;2023-02-15T13:17:10;54.10;;;27.80;;
38615;SDS011;24370;51.986;4.666;2023-02-15T13:19:46;54.67;;;26.63;;
38615;SDS011;24370;51.986;4.666;2023-02-15T13:22:16;55.85;;;26.25;;
38615;SDS011;24370;51.986;4.666;2023-02-15T13:24:48;49.88;;;25.75;;
38615;SDS011;24370;51.986;4.666;2023-02-15T13:27:21;50.95;;;24.42;;
38615;SDS011;24370;51.986;4.666;2023-02-15T13:29:56;53.25;;;26.08;;
38615;SDS011;24370;51.986;4.666;2023-02-15T13:34:54;52.63;;;26.42;;
38615;SDS011;24370;51.986;4.666;2023-02-15T13:40:37;51.85;;;27.42;;
38615;SDS011;24370;51.986;4.666;2023-02-15T13:54:23;54.67;;;27.40;;
38615;SDS011;24370;51.986;4.666;2023-02-15T14:19:04;61.47;;;31.30;;
38615;SDS011;24370;51.986;4.666;2023-02-15T14:29:49;62.97;;;29.47;;
38615;SDS011;24370;51.986;4.666;2023-02-15T14:32:41;59.50;;;29.57;;
38615;SDS011;24370;51.986;4.666;2023-02-15T14:35:16;61.57;;;29.80;;
38615;SDS011;24370;51.986;4.666;2023-02-15T14:48:55;63.43;;;32.03;;
38615;SDS011;24370;51.986;4.666;2023-02-15T14:56:46;61.27;;;31.47;;
38615;SDS011;24370;51.986;4.666;2023-02-15T15:02:38;61.53;;;33.27;;
38615;SDS011;24370;51.986;4.666;2023-02-15T15:05:23;65.60;;;33.47;;
38615;SDS011;24370;51.986;4.666;2023-02-15T15:07:57;69.00;;;33.47;;
38615;SDS011;24370;51.986;4.666;2023-02-15T15:13:53;64.50;;;32.20;;
38615;SDS011;24370;51.986;4.666;2023-02-15T15:18:54;67.93;;;34.47;;
38615;SDS011;24370;51.986;4.666;2023-02-15T15:32:47;68.80;;;32.93;;
38615;SDS011;24370;51.986;4.666;2023-02-15T15:49:39;72.90;;;35.30;;
38615;SDS011;24370;51.986;4.666;2023-02-15T15:52:15;76.00;;;35.80;;
38615;SDS011;24370;51.986;4.666;2023-02-15T15:54:42;71.80;;;37.67;;
38615;SDS011;24370;51.986;4.666;2023-02-15T15:57:21;66.13;;;35.27;;
38615;SDS011;24370;51.986;4.666;2023-02-15T16:00:24;77.97;;;37.33;;
38615;SDS011;24370;51.986;4.666;2023-02-15T16:03:03;73.00;;;37.10;;
38615;SDS011;24370;51.986;4.666;2023-02-15T16:05:38;81.67;;;37.00;;
38615;SDS011;24370;51.986;4.666;2023-02-15T16:08:04;78.53;;;36.70;;
38615;SDS011;24370;51.986;4.666;2023-02-15T16:10:29;75.80;;;38.53;;
38615;SDS011;24370;51.986;4.666;2023-02-15T16:12:59;74.47;;;37.73;;
38615;SDS011;24370;51.986;4.666;2023-02-15T16:15:34;78.80;;;39.13;;
38615;SDS011;24370;51.986;4.666;2023-02-15T16:18:11;73.40;;;38.63;;
38615;SDS011;24370;51.986;4.666;2023-02-15T16:20:41;78.70;;;37.27;;
38615;SDS011;24370;51.986;4.666;2023-02-15T16:28:51;79.43;;;38.10;;
38615;SDS011;24370;51.986;4.666;2023-02-15T16:33:43;82.77;;;38.63;;
38615;SDS011;24370;51.986;4.666;2023-02-15T16:36:13;82.30;;;38.73;;
38615;SDS011;24370;51.986;4.666;2023-02-15T16:41:15;80.87;;;39.27;;
38615;SDS011;24370;51.986;4.666;2023-02-15T16:43:43;77.83;;;39.60;;
38615;SDS011;24370;51.986;4.666;2023-02-15T16:46:24;84.57;;;39.30;;
38615;SDS011;24370;51.986;4.666;2023-02-15T16:48:53;79.70;;;38.13;;
38615;SDS011;24370;51.986;4.666;2023-02-15T16:51:24;82.77;;;38.13;;
38615;SDS011;24370;51.986;4.666;2023-02-15T16:53:52;78.37;;;38.30;;
38615;SDS011;24370;51.986;4.666;2023-02-15T16:56:23;75.50;;;37.27;;
38615;SDS011;24370;51.986;4.666;2023-02-15T16:58:51;77.25;;;37.40;;
38615;SDS011;24370;51.986;4.666;2023-02-15T17:01:20;77.90;;;38.43;;
38615;SDS011;24370;51.986;4.666;2023-02-15T17:03:49;88.60;;;39.47;;
38615;SDS011;24370;51.986;4.666;2023-02-15T17:06:18;75.17;;;38.33;;
38615;SDS011;24370;51.986;4.666;2023-02-15T17:08:46;77.50;;;37.57;;
38615;SDS011;24370;51.986;4.666;2023-02-15T17:16:32;79.57;;;38.00;;
38615;SDS011;24370;51.986;4.666;2023-02-15T17:19:00;75.67;;;36.03;;
38615;SDS011;24370;51.986;4.666;2023-02-15T17:21:34;79.93;;;37.60;;
38615;SDS011;24370;51.986;4.666;2023-02-15T17:24:04;77.50;;;37.10;;
38615;SDS011;24370;51.986;4.666;2023-02-15T17:26:30;83.37;;;37.80;;
38615;SDS011;24370;51.986;4.666;2023-02-15T17:29:00;75.03;;;37.00;;
38615;SDS011;24370;51.986;4.666;2023-02-15T17:31:31;81.17;;;38.30;;
38615;SDS011;24370;51.986;4.666;2023-02-15T17:33:58;82.53;;;38.07;;
38615;SDS011;24370;51.986;4.666;2023-02-15T17:36:26;79.17;;;38.23;;
38615;SDS011;24370;51.986;4.666;2023-02-15T17:41:23;83.23;;;37.47;;
38615;SDS011;24370;51.986;4.666;2023-02-15T17:43:49;82.50;;;38.77;;
38615;SDS011;24370;51.986;4.666;2023-02-15T17:46:14;77.53;;;36.63;;
38615;SDS011;24370;51.986;4.666;2023-02-15T17:48:43;83.40;;;39.30;;
38615;SDS011;24370;51.986;4.666;2023-02-15T17:51:13;78.77;;;37.20;;
38615;SDS011;24370;51.986;4.666;2023-02-15T17:53:40;82.43;;;37.53;;
38615;SDS011;24370;51.986;4.666;2023-02-15T17:56:26;76.50;;;37.10;;
38615;SDS011;24370;51.986;4.666;2023-02-15T17:58:51;77.30;;;37.93;;
38615;SDS011;24370;51.986;4.666;2023-02-15T18:01:17;81.87;;;37.67;;
38615;SDS011;24370;51.986;4.666;2023-02-15T18:04:03;78.60;;;38.10;;
38615;SDS011;24370;51.986;4.666;2023-02-15T18:06:48;77.17;;;37.67;;
38615;SDS011;24370;51.986;4.666;2023-02-15T18:09:33;78.37;;;36.63;;
38615;SDS011;24370;51.986;4.666;2023-02-15T18:12:22;75.40;;;36.27;;
38615;SDS011;24370;51.986;4.666;2023-02-15T18:14:51;78.47;;;36.10;;
38615;SDS011;24370;51.986;4.666;2023-02-15T18:17:18;81.30;;;38.67;;
38615;SDS011;24370;51.986;4.666;2023-02-15T18:19:57;109.63;;;59.97;;